sensor_id;sensor_type;location;lat;lon;timestamp;P1;durP1;ratioP1;P2;durP2;ratioP2
69172;SDS011;56280;49.662;8.408;2023-06-14T00:01:38;9.67;;;6.03;;
69172;SDS011;56280;49.662;8.408;2023-06-14T00:04:03;9.20;;;6.57;;
69172;SDS011;56280;49.662;8.408;2023-06-14T00:06:33;11.13;;;6.93;;
69172;SDS011;56280;49.662;8.408;2023-06-14T00:08:59;8.77;;;6.35;;
69172;SDS011;56280;49.662;8.408;2023-06-14T00:11:24;8.20;;;6.05;;
69172;SDS011;56280;49.662;8.408;2023-06-14T00:13:51;10.77;;;6.25;;
69172;SDS011;56280;49.662;8.408;2023-06-14T00:16:17;10.80;;;6.73;;
69172;SDS011;56280;49.662;8.408;2023-06-14T00:18:42;9.88;;;6.10;;
69172;SDS011;56280;49.662;8.408;2023-06-14T00:21:08;10.63;;;6.93;;
69172;SDS011;56280;49.662;8.408;2023-06-14T00:23:33;10.63;;;6.40;;
69172;SDS011;56280;49.662;8.408;2023-06-14T00:25:58;9.90;;;6.27;;
69172;SDS011;56280;49.662;8.408;2023-06-14T00:28:24;10.87;;;6.20;;
69172;SDS011;56280;49.662;8.408;2023-06-14T00:30:49;8.57;;;6.57;;
69172;SDS011;56280;49.662;8.408;2023-06-14T00:33:14;8.03;;;6.40;;
69172;SDS011;56280;49.662;8.408;2023-06-14T00:35:40;11.13;;;6.47;;
69172;SDS011;56280;49.662;8.408;2023-06-14T00:38:05;9.03;;;6.40;;
69172;SDS011;56280;49.662;8.408;2023-06-14T00:40:30;9.40;;;7.07;;
69172;SDS011;56280;49.662;8.408;2023-06-14T00:42:55;9.23;;;6.30;;
69172;SDS011;56280;49.662;8.408;2023-06-14T00:45:21;9.27;;;6.70;;
69172;SDS011;56280;49.662;8.408;2023-06-14T00:47:46;12.30;;;6.20;;
69172;SDS011;56280;49.662;8.408;2023-06-14T00:50:12;8.75;;;6.20;;
69172;SDS011;56280;49.662;8.408;2023-06-14T00:52:38;10.20;;;6.50;;
69172;SDS011;56280;49.662;8.408;2023-06-14T00:55:04;11.55;;;6.75;;
69172;SDS011;56280;49.662;8.408;2023-06-14T00:57:29;9.65;;;6.15;;
69172;SDS011;56280;49.662;8.408;2023-06-14T00:59:55;9.23;;;6.43;;
69172;SDS011;56280;49.662;8.408;2023-06-14T01:02:20;9.80;;;6.70;;
69172;SDS011;56280;49.662;8.408;2023-06-14T01:04:47;10.68;;;7.20;;
69172;SDS011;56280;49.662;8.408;2023-06-14T01:12:46;11.27;;;7.15;;
69172;SDS011;56280;49.662;8.408;2023-06-14T01:15:13;11.45;;;7.38;;
69172;SDS011;56280;49.662;8.408;2023-06-14T01:17:40;13.00;;;7.65;;
69172;SDS011;56280;49.662;8.408;2023-06-14T01:20:10;9.60;;;7.57;;
69172;SDS011;56280;49.662;8.408;2023-06-14T01:22:45;12.27;;;7.10;;
69172;SDS011;56280;49.662;8.408;2023-06-14T01:25:17;9.95;;;6.88;;
69172;SDS011;56280;49.662;8.408;2023-06-14T01:27:46;9.98;;;7.10;;
69172;SDS011;56280;49.662;8.408;2023-06-14T01:30:13;11.55;;;6.70;;
69172;SDS011;56280;49.662;8.408;2023-06-14T01:32:39;10.90;;;7.10;;
69172;SDS011;56280;49.662;8.408;2023-06-14T01:35:05;11.65;;;7.18;;
69172;SDS011;56280;49.662;8.408;2023-06-14T01:37:31;13.10;;;7.78;;
69172;SDS011;56280;49.662;8.408;2023-06-14T01:39:56;11.07;;;7.10;;
69172;SDS011;56280;49.662;8.408;2023-06-14T01:42:23;12.88;;;7.00;;
69172;SDS011;56280;49.662;8.408;2023-06-14T01:44:49;10.00;;;7.43;;
69172;SDS011;56280;49.662;8.408;2023-06-14T01:47:17;10.80;;;7.47;;
69172;SDS011;56280;49.662;8.408;2023-06-14T01:49:42;10.00;;;7.10;;
69172;SDS011;56280;49.662;8.408;2023-06-14T01:52:08;9.80;;;7.40;;
69172;SDS011;56280;49.662;8.408;2023-06-14T01:54:35;12.30;;;7.28;;
69172;SDS011;56280;49.662;8.408;2023-06-14T01:57:02;11.43;;;7.60;;
69172;SDS011;56280;49.662;8.408;2023-06-14T01:59:28;12.88;;;7.60;;
69172;SDS011;56280;49.662;8.408;2023-06-14T02:01:53;11.07;;;7.70;;
69172;SDS011;56280;49.662;8.408;2023-06-14T02:04:18;12.60;;;7.70;;
69172;SDS011;56280;49.662;8.408;2023-06-14T02:06:44;10.73;;;7.40;;
69172;SDS011;56280;49.662;8.408;2023-06-14T02:09:09;10.67;;;7.23;;
69172;SDS011;56280;49.662;8.408;2023-06-14T02:11:34;14.07;;;8.03;;
69172;SDS011;56280;49.662;8.408;2023-06-14T02:14:00;12.43;;;7.90;;
69172;SDS011;56280;49.662;8.408;2023-06-14T02:16:26;11.57;;;7.75;;
69172;SDS011;56280;49.662;8.408;2023-06-14T02:18:53;9.93;;;7.70;;
69172;SDS011;56280;49.662;8.408;2023-06-14T02:21:18;10.73;;;7.37;;
69172;SDS011;56280;49.662;8.408;2023-06-14T02:23:46;11.87;;;8.20;;
69172;SDS011;56280;49.662;8.408;2023-06-14T02:26:12;9.88;;;7.70;;
69172;SDS011;56280;49.662;8.408;2023-06-14T02:28:38;10.07;;;8.00;;
69172;SDS011;56280;49.662;8.408;2023-06-14T02:31:03;12.57;;;7.80;;
69172;SDS011;56280;49.662;8.408;2023-06-14T02:33:28;11.13;;;8.07;;
69172;SDS011;56280;49.662;8.408;2023-06-14T02:35:53;10.70;;;7.73;;
69172;SDS011;56280;49.662;8.408;2023-06-14T02:38:19;13.27;;;7.60;;
69172;SDS011;56280;49.662;8.408;2023-06-14T02:40:44;12.27;;;8.03;;
69172;SDS011;56280;49.662;8.408;2023-06-14T02:43:09;13.73;;;8.10;;
69172;SDS011;56280;49.662;8.408;2023-06-14T02:45:35;9.93;;;7.30;;
69172;SDS011;56280;49.662;8.408;2023-06-14T02:48:00;11.23;;;7.23;;
69172;SDS011;56280;49.662;8.408;2023-06-14T02:50:25;10.00;;;7.20;;
69172;SDS011;56280;49.662;8.408;2023-06-14T02:52:53;9.75;;;6.85;;
69172;SDS011;56280;49.662;8.408;2023-06-14T02:55:20;9.00;;;6.72;;
69172;SDS011;56280;49.662;8.408;2023-06-14T02:57:46;9.40;;;7.17;;
69172;SDS011;56280;49.662;8.408;2023-06-14T03:00:13;10.98;;;7.03;;
69172;SDS011;56280;49.662;8.408;2023-06-14T03:02:39;10.50;;;7.30;;
69172;SDS011;56280;49.662;8.408;2023-06-14T03:05:04;9.23;;;6.95;;
69172;SDS011;56280;49.662;8.408;2023-06-14T03:07:31;10.10;;;7.10;;
69172;SDS011;56280;49.662;8.408;2023-06-14T03:09:57;9.25;;;6.95;;
69172;SDS011;56280;49.662;8.408;2023-06-14T03:12:22;10.37;;;6.90;;
69172;SDS011;56280;49.662;8.408;2023-06-14T03:14:48;10.23;;;6.90;;
69172;SDS011;56280;49.662;8.408;2023-06-14T03:17:15;10.95;;;7.13;;
69172;SDS011;56280;49.662;8.408;2023-06-14T03:19:42;11.20;;;7.77;;
69172;SDS011;56280;49.662;8.408;2023-06-14T03:22:07;9.93;;;7.15;;
69172;SDS011;56280;49.662;8.408;2023-06-14T03:24:33;9.55;;;7.13;;
69172;SDS011;56280;49.662;8.408;2023-06-14T03:27:01;10.17;;;6.90;;
69172;SDS011;56280;49.662;8.408;2023-06-14T03:29:27;10.68;;;7.03;;
69172;SDS011;56280;49.662;8.408;2023-06-14T03:31:56;9.67;;;7.20;;
69172;SDS011;56280;49.662;8.408;2023-06-14T03:34:25;10.40;;;7.32;;
69172;SDS011;56280;49.662;8.408;2023-06-14T03:36:51;10.00;;;7.03;;
69172;SDS011;56280;49.662;8.408;2023-06-14T03:39:17;9.25;;;7.07;;
69172;SDS011;56280;49.662;8.408;2023-06-14T03:41:42;11.00;;;7.37;;
69172;SDS011;56280;49.662;8.408;2023-06-14T03:44:07;10.83;;;6.97;;
69172;SDS011;56280;49.662;8.408;2023-06-14T03:46:33;10.75;;;6.68;;
69172;SDS011;56280;49.662;8.408;2023-06-14T03:48:58;10.17;;;6.80;;
69172;SDS011;56280;49.662;8.408;2023-06-14T03:51:23;9.80;;;6.80;;
69172;SDS011;56280;49.662;8.408;2023-06-14T03:53:50;8.85;;;6.63;;
69172;SDS011;56280;49.662;8.408;2023-06-14T03:56:15;9.93;;;6.40;;
69172;SDS011;56280;49.662;8.408;2023-06-14T03:58:40;11.10;;;7.20;;
69172;SDS011;56280;49.662;8.408;2023-06-14T04:01:06;9.40;;;6.37;;
69172;SDS011;56280;49.662;8.408;2023-06-14T04:03:31;10.13;;;6.45;;
69172;SDS011;56280;49.662;8.408;2023-06-14T04:05:58;10.18;;;6.47;;
69172;SDS011;56280;49.662;8.408;2023-06-14T04:08:24;9.75;;;6.53;;
69172;SDS011;56280;49.662;8.408;2023-06-14T04:10:49;9.00;;;6.10;;
69172;SDS011;56280;49.662;8.408;2023-06-14T04:13:15;9.30;;;6.20;;
69172;SDS011;56280;49.662;8.408;2023-06-14T04:15:40;9.87;;;6.90;;
69172;SDS011;56280;49.662;8.408;2023-06-14T04:18:10;9.00;;;6.32;;
69172;SDS011;56280;49.662;8.408;2023-06-14T04:20:36;9.63;;;6.50;;
69172;SDS011;56280;49.662;8.408;2023-06-14T04:23:11;10.23;;;6.53;;
69172;SDS011;56280;49.662;8.408;2023-06-14T04:25:46;10.20;;;6.22;;
69172;SDS011;56280;49.662;8.408;2023-06-14T04:28:12;9.57;;;6.10;;
69172;SDS011;56280;49.662;8.408;2023-06-14T04:30:40;10.52;;;6.55;;
69172;SDS011;56280;49.662;8.408;2023-06-14T04:33:05;9.70;;;6.40;;
69172;SDS011;56280;49.662;8.408;2023-06-14T04:35:36;10.35;;;6.13;;
69172;SDS011;56280;49.662;8.408;2023-06-14T04:38:03;8.70;;;5.97;;
69172;SDS011;56280;49.662;8.408;2023-06-14T04:40:34;8.98;;;6.13;;
69172;SDS011;56280;49.662;8.408;2023-06-14T04:43:01;8.45;;;5.90;;
69172;SDS011;56280;49.662;8.408;2023-06-14T04:45:29;10.60;;;6.78;;
69172;SDS011;56280;49.662;8.408;2023-06-14T04:47:56;9.00;;;6.40;;
69172;SDS011;56280;49.662;8.408;2023-06-14T04:50:24;9.95;;;6.00;;
69172;SDS011;56280;49.662;8.408;2023-06-14T04:52:49;8.87;;;5.83;;
69172;SDS011;56280;49.662;8.408;2023-06-14T04:55:16;11.20;;;6.10;;
69172;SDS011;56280;49.662;8.408;2023-06-14T04:57:41;8.60;;;6.23;;
69172;SDS011;56280;49.662;8.408;2023-06-14T05:00:07;10.10;;;5.95;;
69172;SDS011;56280;49.662;8.408;2023-06-14T05:02:35;11.00;;;6.15;;
69172;SDS011;56280;49.662;8.408;2023-06-14T05:05:02;8.63;;;6.00;;
69172;SDS011;56280;49.662;8.408;2023-06-14T05:07:31;9.75;;;6.30;;
69172;SDS011;56280;49.662;8.408;2023-06-14T05:09:58;9.60;;;6.18;;
69172;SDS011;56280;49.662;8.408;2023-06-14T05:12:23;10.73;;;6.15;;
69172;SDS011;56280;49.662;8.408;2023-06-14T05:14:49;9.37;;;6.40;;
69172;SDS011;56280;49.662;8.408;2023-06-14T05:17:15;11.00;;;6.10;;
69172;SDS011;56280;49.662;8.408;2023-06-14T05:19:41;8.18;;;6.13;;
69172;SDS011;56280;49.662;8.408;2023-06-14T05:22:07;9.20;;;5.75;;
69172;SDS011;56280;49.662;8.408;2023-06-14T05:24:32;9.98;;;6.10;;
69172;SDS011;56280;49.662;8.408;2023-06-14T05:26:57;9.82;;;6.03;;
69172;SDS011;56280;49.662;8.408;2023-06-14T05:29:23;8.93;;;5.80;;
69172;SDS011;56280;49.662;8.408;2023-06-14T05:31:48;11.73;;;6.30;;
69172;SDS011;56280;49.662;8.408;2023-06-14T05:34:13;10.80;;;6.03;;
69172;SDS011;56280;49.662;8.408;2023-06-14T05:36:38;12.13;;;5.80;;
69172;SDS011;56280;49.662;8.408;2023-06-14T05:39:04;11.50;;;5.50;;
69172;SDS011;56280;49.662;8.408;2023-06-14T05:41:30;9.55;;;6.07;;
69172;SDS011;56280;49.662;8.408;2023-06-14T05:43:56;9.53;;;5.50;;
69172;SDS011;56280;49.662;8.408;2023-06-14T05:46:22;8.63;;;6.10;;
69172;SDS011;56280;49.662;8.408;2023-06-14T05:48:50;10.07;;;6.20;;
69172;SDS011;56280;49.662;8.408;2023-06-14T05:51:16;8.95;;;5.57;;
69172;SDS011;56280;49.662;8.408;2023-06-14T05:53:44;7.88;;;5.57;;
69172;SDS011;56280;49.662;8.408;2023-06-14T05:56:11;9.55;;;6.10;;
69172;SDS011;56280;49.662;8.408;2023-06-14T05:58:36;9.57;;;6.00;;
69172;SDS011;56280;49.662;8.408;2023-06-14T06:01:01;10.50;;;6.10;;
69172;SDS011;56280;49.662;8.408;2023-06-14T06:03:27;10.20;;;5.50;;
69172;SDS011;56280;49.662;8.408;2023-06-14T06:05:54;10.00;;;5.72;;
69172;SDS011;56280;49.662;8.408;2023-06-14T06:08:19;10.83;;;6.00;;
69172;SDS011;56280;49.662;8.408;2023-06-14T06:10:45;10.00;;;5.70;;
69172;SDS011;56280;49.662;8.408;2023-06-14T06:13:11;10.73;;;5.70;;
69172;SDS011;56280;49.662;8.408;2023-06-14T06:15:36;10.67;;;6.17;;
69172;SDS011;56280;49.662;8.408;2023-06-14T06:18:01;8.50;;;6.10;;
69172;SDS011;56280;49.662;8.408;2023-06-14T06:20:26;9.90;;;5.63;;
69172;SDS011;56280;49.662;8.408;2023-06-14T06:22:53;8.40;;;5.88;;
69172;SDS011;56280;49.662;8.408;2023-06-14T06:25:19;9.33;;;5.90;;
69172;SDS011;56280;49.662;8.408;2023-06-14T06:27:44;10.90;;;5.97;;
69172;SDS011;56280;49.662;8.408;2023-06-14T06:30:10;9.75;;;5.88;;
69172;SDS011;56280;49.662;8.408;2023-06-14T06:32:35;10.00;;;5.90;;
69172;SDS011;56280;49.662;8.408;2023-06-14T06:35:01;8.87;;;5.43;;
69172;SDS011;56280;49.662;8.408;2023-06-14T06:37:26;9.63;;;5.53;;
69172;SDS011;56280;49.662;8.408;2023-06-14T06:39:51;8.00;;;5.50;;
69172;SDS011;56280;49.662;8.408;2023-06-14T06:42:16;8.60;;;5.20;;
69172;SDS011;56280;49.662;8.408;2023-06-14T06:44:42;10.47;;;5.33;;
69172;SDS011;56280;49.662;8.408;2023-06-14T06:47:07;9.83;;;5.20;;
69172;SDS011;56280;49.662;8.408;2023-06-14T06:49:32;7.97;;;5.07;;
69172;SDS011;56280;49.662;8.408;2023-06-14T06:52:04;12.37;;;5.03;;
69172;SDS011;56280;49.662;8.408;2023-06-14T06:54:31;9.40;;;5.10;;
69172;SDS011;56280;49.662;8.408;2023-06-14T06:56:57;8.93;;;5.38;;
69172;SDS011;56280;49.662;8.408;2023-06-14T06:59:22;8.97;;;4.83;;
69172;SDS011;56280;49.662;8.408;2023-06-14T07:01:47;7.30;;;4.80;;
69172;SDS011;56280;49.662;8.408;2023-06-14T07:04:13;7.95;;;5.25;;
69172;SDS011;56280;49.662;8.408;2023-06-14T07:06:38;9.15;;;5.07;;
69172;SDS011;56280;49.662;8.408;2023-06-14T07:09:04;7.95;;;5.00;;
69172;SDS011;56280;49.662;8.408;2023-06-14T07:11:33;10.93;;;5.30;;
69172;SDS011;56280;49.662;8.408;2023-06-14T07:13:58;11.35;;;5.15;;
69172;SDS011;56280;49.662;8.408;2023-06-14T07:16:23;8.57;;;5.00;;
69172;SDS011;56280;49.662;8.408;2023-06-14T07:18:49;7.85;;;4.82;;
69172;SDS011;56280;49.662;8.408;2023-06-14T07:21:14;7.90;;;4.90;;
69172;SDS011;56280;49.662;8.408;2023-06-14T07:23:39;9.00;;;5.07;;
69172;SDS011;56280;49.662;8.408;2023-06-14T07:26:05;11.00;;;5.63;;
69172;SDS011;56280;49.662;8.408;2023-06-14T07:28:30;10.90;;;5.43;;
69172;SDS011;56280;49.662;8.408;2023-06-14T07:30:55;8.30;;;5.23;;
69172;SDS011;56280;49.662;8.408;2023-06-14T07:33:21;7.05;;;5.25;;
69172;SDS011;56280;49.662;8.408;2023-06-14T07:35:46;8.40;;;4.93;;
69172;SDS011;56280;49.662;8.408;2023-06-14T07:38:12;7.07;;;5.00;;
69172;SDS011;56280;49.662;8.408;2023-06-14T07:40:37;8.20;;;5.07;;
69172;SDS011;56280;49.662;8.408;2023-06-14T07:43:03;7.77;;;5.03;;
69172;SDS011;56280;49.662;8.408;2023-06-14T07:45:28;10.87;;;5.13;;
69172;SDS011;56280;49.662;8.408;2023-06-14T07:47:53;8.13;;;5.23;;
69172;SDS011;56280;49.662;8.408;2023-06-14T07:50:18;8.87;;;4.87;;
69172;SDS011;56280;49.662;8.408;2023-06-14T07:52:44;8.37;;;5.27;;
69172;SDS011;56280;49.662;8.408;2023-06-14T07:55:10;9.60;;;5.40;;
69172;SDS011;56280;49.662;8.408;2023-06-14T07:57:35;8.87;;;5.07;;
69172;SDS011;56280;49.662;8.408;2023-06-14T08:00:00;7.80;;;4.90;;
69172;SDS011;56280;49.662;8.408;2023-06-14T08:02:26;7.83;;;5.17;;
69172;SDS011;56280;49.662;8.408;2023-06-14T08:04:51;7.23;;;5.07;;
69172;SDS011;56280;49.662;8.408;2023-06-14T08:07:17;9.18;;;5.47;;
69172;SDS011;56280;49.662;8.408;2023-06-14T08:09:42;10.53;;;5.43;;
69172;SDS011;56280;49.662;8.408;2023-06-14T08:12:08;7.40;;;4.83;;
69172;SDS011;56280;49.662;8.408;2023-06-14T08:14:34;8.52;;;5.28;;
69172;SDS011;56280;49.662;8.408;2023-06-14T08:17:00;7.87;;;4.87;;
69172;SDS011;56280;49.662;8.408;2023-06-14T08:19:25;7.83;;;5.10;;
69172;SDS011;56280;49.662;8.408;2023-06-14T08:21:51;7.25;;;4.88;;
69172;SDS011;56280;49.662;8.408;2023-06-14T08:24:16;8.25;;;5.30;;
69172;SDS011;56280;49.662;8.408;2023-06-14T08:26:42;9.20;;;4.83;;
69172;SDS011;56280;49.662;8.408;2023-06-14T08:29:07;9.10;;;4.73;;
69172;SDS011;56280;49.662;8.408;2023-06-14T08:31:33;8.70;;;5.20;;
69172;SDS011;56280;49.662;8.408;2023-06-14T08:33:58;8.00;;;4.85;;
69172;SDS011;56280;49.662;8.408;2023-06-14T08:36:24;7.40;;;5.03;;
69172;SDS011;56280;49.662;8.408;2023-06-14T08:38:49;8.50;;;5.07;;
69172;SDS011;56280;49.662;8.408;2023-06-14T08:41:16;7.77;;;4.30;;
69172;SDS011;56280;49.662;8.408;2023-06-14T08:43:47;9.07;;;4.30;;
69172;SDS011;56280;49.662;8.408;2023-06-14T08:46:12;7.95;;;4.00;;
69172;SDS011;56280;49.662;8.408;2023-06-14T08:48:41;9.80;;;4.43;;
69172;SDS011;56280;49.662;8.408;2023-06-14T08:51:08;8.05;;;4.20;;
69172;SDS011;56280;49.662;8.408;2023-06-14T08:53:35;5.90;;;3.90;;
69172;SDS011;56280;49.662;8.408;2023-06-14T08:56:06;7.40;;;3.80;;
69172;SDS011;56280;49.662;8.408;2023-06-14T08:58:38;6.10;;;3.67;;
69172;SDS011;56280;49.662;8.408;2023-06-14T09:01:14;5.43;;;3.78;;
69172;SDS011;56280;49.662;8.408;2023-06-14T09:03:41;5.75;;;3.55;;
69172;SDS011;56280;49.662;8.408;2023-06-14T09:06:08;6.60;;;3.57;;
69172;SDS011;56280;49.662;8.408;2023-06-14T09:08:39;6.32;;;3.58;;
69172;SDS011;56280;49.662;8.408;2023-06-14T09:11:06;8.07;;;3.72;;
69172;SDS011;56280;49.662;8.408;2023-06-14T09:13:31;6.97;;;3.67;;
69172;SDS011;56280;49.662;8.408;2023-06-14T09:15:57;6.10;;;3.70;;
69172;SDS011;56280;49.662;8.408;2023-06-14T09:18:23;7.20;;;3.40;;
69172;SDS011;56280;49.662;8.408;2023-06-14T09:21:00;5.43;;;3.13;;
69172;SDS011;56280;49.662;8.408;2023-06-14T09:23:26;6.83;;;3.37;;
69172;SDS011;56280;49.662;8.408;2023-06-14T09:25:51;6.33;;;3.60;;
69172;SDS011;56280;49.662;8.408;2023-06-14T09:28:16;5.70;;;3.20;;
69172;SDS011;56280;49.662;8.408;2023-06-14T09:30:42;6.07;;;3.10;;
69172;SDS011;56280;49.662;8.408;2023-06-14T09:33:07;8.90;;;3.30;;
69172;SDS011;56280;49.662;8.408;2023-06-14T09:35:33;5.53;;;3.00;;
69172;SDS011;56280;49.662;8.408;2023-06-14T09:37:59;5.18;;;3.45;;
69172;SDS011;56280;49.662;8.408;2023-06-14T09:40:24;6.72;;;3.10;;
69172;SDS011;56280;49.662;8.408;2023-06-14T09:42:49;4.90;;;2.80;;
69172;SDS011;56280;49.662;8.408;2023-06-14T09:45:16;6.85;;;3.17;;
69172;SDS011;56280;49.662;8.408;2023-06-14T09:47:47;7.45;;;3.40;;
69172;SDS011;56280;49.662;8.408;2023-06-14T09:50:14;6.55;;;3.45;;
69172;SDS011;56280;49.662;8.408;2023-06-14T09:52:39;7.00;;;3.23;;
69172;SDS011;56280;49.662;8.408;2023-06-14T09:55:09;9.48;;;3.30;;
69172;SDS011;56280;49.662;8.408;2023-06-14T09:57:37;5.85;;;3.10;;
69172;SDS011;56280;49.662;8.408;2023-06-14T10:00:07;8.60;;;3.33;;
69172;SDS011;56280;49.662;8.408;2023-06-14T10:02:36;5.35;;;3.10;;
69172;SDS011;56280;49.662;8.408;2023-06-14T10:05:04;6.60;;;2.80;;
69172;SDS011;56280;49.662;8.408;2023-06-14T10:07:35;6.95;;;2.97;;
69172;SDS011;56280;49.662;8.408;2023-06-14T10:10:05;5.22;;;2.92;;
69172;SDS011;56280;49.662;8.408;2023-06-14T10:12:31;5.28;;;2.85;;
69172;SDS011;56280;49.662;8.408;2023-06-14T10:14:57;5.43;;;3.10;;
69172;SDS011;56280;49.662;8.408;2023-06-14T10:20:12;5.53;;;2.90;;
69172;SDS011;56280;49.662;8.408;2023-06-14T10:22:46;4.03;;;2.83;;
69172;SDS011;56280;49.662;8.408;2023-06-14T10:25:28;4.93;;;2.67;;
69172;SDS011;56280;49.662;8.408;2023-06-14T10:33:35;6.50;;;2.78;;
69172;SDS011;56280;49.662;8.408;2023-06-14T10:39:10;5.95;;;3.00;;
69172;SDS011;56280;49.662;8.408;2023-06-14T10:41:36;6.18;;;2.35;;
69172;SDS011;56280;49.662;8.408;2023-06-14T10:46:37;4.97;;;2.33;;
69172;SDS011;56280;49.662;8.408;2023-06-14T10:49:03;4.33;;;2.60;;
69172;SDS011;56280;49.662;8.408;2023-06-14T10:51:29;6.13;;;2.53;;
69172;SDS011;56280;49.662;8.408;2023-06-14T10:54:11;4.47;;;2.50;;
69172;SDS011;56280;49.662;8.408;2023-06-14T10:56:37;4.25;;;2.60;;
69172;SDS011;56280;49.662;8.408;2023-06-14T10:59:02;4.83;;;2.30;;
69172;SDS011;56280;49.662;8.408;2023-06-14T11:01:38;4.90;;;2.40;;
69172;SDS011;56280;49.662;8.408;2023-06-14T11:04:46;4.65;;;2.40;;
69172;SDS011;56280;49.662;8.408;2023-06-14T11:07:23;4.78;;;2.45;;
69172;SDS011;56280;49.662;8.408;2023-06-14T11:12:57;4.97;;;2.50;;
69172;SDS011;56280;49.662;8.408;2023-06-14T11:15:27;5.30;;;2.60;;
69172;SDS011;56280;49.662;8.408;2023-06-14T11:17:56;6.20;;;2.45;;
69172;SDS011;56280;49.662;8.408;2023-06-14T11:20:26;4.38;;;2.47;;
69172;SDS011;56280;49.662;8.408;2023-06-14T11:22:52;7.03;;;2.90;;
69172;SDS011;56280;49.662;8.408;2023-06-14T11:25:18;4.95;;;3.00;;
69172;SDS011;56280;49.662;8.408;2023-06-14T11:27:44;5.33;;;2.77;;
69172;SDS011;56280;49.662;8.408;2023-06-14T11:30:09;4.88;;;2.72;;
69172;SDS011;56280;49.662;8.408;2023-06-14T11:32:36;5.53;;;3.20;;
69172;SDS011;56280;49.662;8.408;2023-06-14T11:35:02;6.03;;;3.13;;
69172;SDS011;56280;49.662;8.408;2023-06-14T11:37:29;5.13;;;2.70;;
69172;SDS011;56280;49.662;8.408;2023-06-14T11:39:56;5.13;;;2.72;;
69172;SDS011;56280;49.662;8.408;2023-06-14T11:42:22;4.85;;;3.30;;
69172;SDS011;56280;49.662;8.408;2023-06-14T11:44:49;5.17;;;3.20;;
69172;SDS011;56280;49.662;8.408;2023-06-14T11:47:14;5.30;;;3.20;;
69172;SDS011;56280;49.662;8.408;2023-06-14T11:49:40;6.73;;;3.07;;
69172;SDS011;56280;49.662;8.408;2023-06-14T11:52:05;5.90;;;3.10;;
69172;SDS011;56280;49.662;8.408;2023-06-14T11:54:31;8.13;;;4.03;;
69172;SDS011;56280;49.662;8.408;2023-06-14T11:56:57;5.63;;;3.90;;
69172;SDS011;56280;49.662;8.408;2023-06-14T11:59:23;7.70;;;3.45;;
69172;SDS011;56280;49.662;8.408;2023-06-14T12:01:49;6.28;;;3.60;;
69172;SDS011;56280;49.662;8.408;2023-06-14T12:04:22;5.67;;;3.50;;
69172;SDS011;56280;49.662;8.408;2023-06-14T12:06:49;6.18;;;3.22;;
69172;SDS011;56280;49.662;8.408;2023-06-14T12:09:14;5.93;;;3.10;;
69172;SDS011;56280;49.662;8.408;2023-06-14T12:11:42;6.57;;;3.03;;
69172;SDS011;56280;49.662;8.408;2023-06-14T12:14:08;5.68;;;2.70;;
69172;SDS011;56280;49.662;8.408;2023-06-14T12:16:35;5.82;;;3.10;;
69172;SDS011;56280;49.662;8.408;2023-06-14T12:19:09;5.28;;;2.90;;
69172;SDS011;56280;49.662;8.408;2023-06-14T12:21:38;5.03;;;3.47;;
69172;SDS011;56280;49.662;8.408;2023-06-14T12:24:05;4.90;;;2.95;;
69172;SDS011;56280;49.662;8.408;2023-06-14T12:26:31;5.53;;;3.17;;
69172;SDS011;56280;49.662;8.408;2023-06-14T12:28:57;6.57;;;3.10;;
69172;SDS011;56280;49.662;8.408;2023-06-14T12:31:22;6.87;;;3.30;;
69172;SDS011;56280;49.662;8.408;2023-06-14T12:33:49;5.90;;;3.47;;
69172;SDS011;56280;49.662;8.408;2023-06-14T12:36:14;5.00;;;2.97;;
69172;SDS011;56280;49.662;8.408;2023-06-14T12:38:40;6.50;;;3.40;;
69172;SDS011;56280;49.662;8.408;2023-06-14T12:41:05;5.50;;;3.07;;
69172;SDS011;56280;49.662;8.408;2023-06-14T12:43:31;5.70;;;3.20;;
69172;SDS011;56280;49.662;8.408;2023-06-14T12:45:56;5.03;;;3.30;;
69172;SDS011;56280;49.662;8.408;2023-06-14T12:48:21;7.70;;;3.50;;
69172;SDS011;56280;49.662;8.408;2023-06-14T12:50:47;5.60;;;3.50;;
69172;SDS011;56280;49.662;8.408;2023-06-14T12:53:12;5.72;;;3.53;;
69172;SDS011;56280;49.662;8.408;2023-06-14T12:55:38;5.73;;;3.37;;
69172;SDS011;56280;49.662;8.408;2023-06-14T12:58:03;5.20;;;3.50;;
69172;SDS011;56280;49.662;8.408;2023-06-14T13:00:29;6.87;;;3.70;;
69172;SDS011;56280;49.662;8.408;2023-06-14T13:02:55;5.28;;;3.60;;
69172;SDS011;56280;49.662;8.408;2023-06-14T13:05:21;6.32;;;3.70;;
69172;SDS011;56280;49.662;8.408;2023-06-14T13:07:47;5.23;;;3.60;;
69172;SDS011;56280;49.662;8.408;2023-06-14T13:10:12;6.23;;;3.83;;
69172;SDS011;56280;49.662;8.408;2023-06-14T13:12:37;6.27;;;3.70;;
69172;SDS011;56280;49.662;8.408;2023-06-14T13:15:03;6.03;;;3.57;;
69172;SDS011;56280;49.662;8.408;2023-06-14T13:17:28;6.22;;;3.50;;
69172;SDS011;56280;49.662;8.408;2023-06-14T13:19:53;5.90;;;3.30;;
69172;SDS011;56280;49.662;8.408;2023-06-14T13:22:19;7.00;;;3.70;;
69172;SDS011;56280;49.662;8.408;2023-06-14T13:24:44;6.37;;;3.53;;
69172;SDS011;56280;49.662;8.408;2023-06-14T13:27:10;5.90;;;3.20;;
69172;SDS011;56280;49.662;8.408;2023-06-14T13:29:35;6.20;;;3.50;;
69172;SDS011;56280;49.662;8.408;2023-06-14T13:32:01;6.25;;;3.10;;
69172;SDS011;56280;49.662;8.408;2023-06-14T13:34:27;6.30;;;3.22;;
69172;SDS011;56280;49.662;8.408;2023-06-14T13:36:52;5.47;;;3.50;;
69172;SDS011;56280;49.662;8.408;2023-06-14T13:39:18;6.40;;;3.20;;
69172;SDS011;56280;49.662;8.408;2023-06-14T13:41:43;6.23;;;3.50;;
69172;SDS011;56280;49.662;8.408;2023-06-14T13:44:09;6.10;;;3.33;;
69172;SDS011;56280;49.662;8.408;2023-06-14T13:46:38;8.00;;;3.50;;
69172;SDS011;56280;49.662;8.408;2023-06-14T13:49:04;5.43;;;3.40;;
69172;SDS011;56280;49.662;8.408;2023-06-14T13:51:30;6.35;;;3.28;;
69172;SDS011;56280;49.662;8.408;2023-06-14T13:53:55;6.53;;;3.40;;
69172;SDS011;56280;49.662;8.408;2023-06-14T13:56:20;6.40;;;3.10;;
69172;SDS011;56280;49.662;8.408;2023-06-14T13:58:47;6.65;;;3.40;;
69172;SDS011;56280;49.662;8.408;2023-06-14T14:01:12;6.53;;;3.27;;
69172;SDS011;56280;49.662;8.408;2023-06-14T14:03:38;6.93;;;3.10;;
69172;SDS011;56280;49.662;8.408;2023-06-14T14:06:03;4.77;;;3.20;;
69172;SDS011;56280;49.662;8.408;2023-06-14T14:08:29;6.20;;;3.30;;
69172;SDS011;56280;49.662;8.408;2023-06-14T14:10:54;4.90;;;3.10;;
69172;SDS011;56280;49.662;8.408;2023-06-14T14:13:20;5.85;;;3.30;;
69172;SDS011;56280;49.662;8.408;2023-06-14T14:15:46;6.87;;;3.40;;
69172;SDS011;56280;49.662;8.408;2023-06-14T14:18:11;6.20;;;3.13;;
69172;SDS011;56280;49.662;8.408;2023-06-14T14:20:37;5.22;;;3.22;;
69172;SDS011;56280;49.662;8.408;2023-06-14T14:23:02;5.73;;;3.10;;
69172;SDS011;56280;49.662;8.408;2023-06-14T14:25:27;5.13;;;3.13;;
69172;SDS011;56280;49.662;8.408;2023-06-14T14:27:53;7.07;;;3.37;;
69172;SDS011;56280;49.662;8.408;2023-06-14T14:30:18;5.63;;;3.33;;
69172;SDS011;56280;49.662;8.408;2023-06-14T14:32:48;5.00;;;3.20;;
69172;SDS011;56280;49.662;8.408;2023-06-14T14:35:14;5.47;;;3.30;;
69172;SDS011;56280;49.662;8.408;2023-06-14T14:37:40;4.80;;;3.20;;
69172;SDS011;56280;49.662;8.408;2023-06-14T14:40:05;6.03;;;3.30;;
69172;SDS011;56280;49.662;8.408;2023-06-14T14:42:31;7.97;;;3.37;;
69172;SDS011;56280;49.662;8.408;2023-06-14T14:44:56;8.10;;;3.40;;
69172;SDS011;56280;49.662;8.408;2023-06-14T14:47:22;6.97;;;3.60;;
69172;SDS011;56280;49.662;8.408;2023-06-14T14:49:47;6.30;;;3.37;;
69172;SDS011;56280;49.662;8.408;2023-06-14T14:52:12;6.60;;;3.50;;
69172;SDS011;56280;49.662;8.408;2023-06-14T14:54:38;6.07;;;3.50;;
69172;SDS011;56280;49.662;8.408;2023-06-14T14:57:04;5.70;;;3.50;;
69172;SDS011;56280;49.662;8.408;2023-06-14T14:59:30;5.47;;;3.38;;
69172;SDS011;56280;49.662;8.408;2023-06-14T15:01:55;5.03;;;3.50;;